Time;durP1;ratioP1;P1;durP2;ratioP2;P2;SDS_P1;SDS_P2;PMS_P1;PMS_P2;Temp;Humidity;BMP_temperature;BMP_pressure;BME280_temperature;BME280_humidity;BME280_pressure;Samples;Min_cycle;Max_cycle;Signal;HPM_P1;HPM_P2
2022/08/05 00:00:44;;;;;;;;;;;30.10;31.70;;;28.63;30.48;100721.22;12253117;19;19934;-88
2022/08/05 00:04:45;;;;;;;;;;;30.00;31.70;;;28.39;30.54;100703.75;12256088;19;19915;-89
2022/08/05 00:08:47;;;;;;;;;;;29.90;31.60;;;28.20;30.71;100696.47;12251304;19;19943;-88
2022/08/05 00:12:48;;;;;;;;;;;29.80;31.60;;;28.14;30.35;100710.69;12253378;19;19929;-88
2022/08/05 00:16:50;;;;;;;;;;;29.70;31.60;;;27.75;30.75;100663.81;12253159;19;19911;-87
2022/08/05 00:20:52;;;;;;;;;;;29.60;31.70;;;27.95;30.56;100702.38;12250586;19;20369;-88
2022/08/05 00:24:53;;;;;;;;;;;29.60;31.70;;;27.78;30.66;100691.09;12257978;19;19990;-87
2022/08/05 00:28:55;;;;;;;;;;;29.40;31.70;;;27.65;31.05;100690.19;12253395;19;20284;-89
2022/08/05 00:32:56;;;;;;;;;;;29.20;31.70;;;27.51;31.00;100692.78;12253775;19;19926;-88
2022/08/05 00:36:58;;;;;;;;;;;29.20;31.80;;;26.89;31.11;100611.25;12252505;19;19943;-88
2022/08/05 00:41:00;;;;;;;;;;;29.00;31.90;;;26.72;31.24;100599.19;12250998;19;19972;-87
2022/08/05 00:45:04;;;;;;;;;;;28.90;32.00;;;26.85;31.34;100642.16;12254331;19;19914;-89
2022/08/05 00:49:07;;;;;;;;;;;28.80;32.00;;;26.88;31.20;100660.53;12248516;19;20283;-89
2022/08/05 00:53:08;;;;;;;;;;;28.70;32.00;;;26.65;31.36;100617.91;12252980;19;19910;-87
2022/08/05 00:57:10;;;;;;;;;;;28.60;32.10;;;26.92;31.61;100669.88;12250123;19;20262;-88
2022/08/05 01:01:14;;;;;;;;;;;28.60;32.10;;;26.53;31.67;100632.00;12249384;19;19926;-89
2022/08/05 01:05:15;;;;;;;;;;;28.50;32.10;;;26.43;31.89;100627.72;12252341;19;19926;-88
2022/08/05 01:09:17;;;;;;;;;;;28.40;32.20;;;26.61;31.76;100664.00;12249014;19;19978;-87
2022/08/05 01:13:30;;;;;;;;;;;28.30;32.30;;;26.37;31.70;100633.84;12252444;19;19980;-87
2022/08/05 01:17:32;;;;;;;;;;;28.30;32.30;;;26.69;31.95;100688.81;12248794;19;19931;-88
2022/08/05 01:21:33;;;;;;;;;;;28.50;32.50;;;26.66;31.90;100685.69;12252359;19;19915;-89
2022/08/05 01:25:43;;;;;;;;;;;28.10;32.50;;;26.43;31.97;100659.88;12251991;19;19915;-87
2022/08/05 01:29:48;;;;;;;;;;;28.10;32.50;;;26.66;32.17;100712.47;12245361;19;19931;-88
2022/08/05 01:34:01;;;;;;;;;;;28.40;32.60;;;26.63;32.08;100710.19;12250535;19;19931;-87
2022/08/05 01:38:05;;;;;;;;;;;28.10;32.70;;;26.44;31.79;100664.22;12247172;19;19907;-89
2022/08/05 01:42:09;;;;;;;;;;;28.10;32.60;;;26.42;32.36;100668.09;12249445;19;20352;-88
2022/08/05 01:46:10;;;;;;;;;;;28.10;32.70;;;26.29;31.98;100650.03;12248079;19;20411;-89
2022/08/05 01:50:31;;;;;;;;;;;28.00;32.70;;;26.69;32.38;100723.63;12245279;19;19994;-88
2022/08/05 01:54:38;;;;;;;;;;;28.10;32.80;;;26.16;32.22;100629.31;12249590;19;19915;-89
2022/08/05 01:58:41;;;;;;;;;;;28.10;32.80;;;26.67;32.43;100703.41;12239600;19;19986;-88
2022/08/05 02:03:12;;;;;;;;;;;28.10;32.90;;;26.79;32.48;100717.97;12258833;19;19918;-88
2022/08/05 02:07:14;;;;;;;;;;;28.10;32.80;;;26.31;32.29;100642.66;12259750;19;19919;-88
2022/08/05 02:11:16;;;;;;;;;;;28.10;32.90;;;26.57;32.11;100682.31;12258705;19;20244;-89
2022/08/05 02:15:24;;;;;;;;;;;28.10;32.70;;;26.59;32.27;100685.63;12258997;19;19935;-89
2022/08/05 02:19:26;;;;;;;;;;;28.10;32.90;;;26.60;32.33;100698.00;12255448;19;19910;-88
2022/08/05 02:23:31;;;;;;;;;;;28.10;32.90;;;26.51;32.70;100685.75;12258716;19;20357;-89
2022/08/05 02:27:35;;;;;;;;;;;28.10;33.00;;;26.62;32.51;100705.84;12257720;19;19907;-89
2022/08/05 02:31:37;;;;;;;;;;;28.00;33.00;;;26.56;32.41;100687.84;12259838;19;19922;-89
2022/08/05 02:35:41;;;;;;;;;;;28.00;33.10;;;26.56;32.57;100690.53;12257183;19;19931;-89
2022/08/05 02:39:42;;;;;;;;;;;28.00;33.00;;;26.47;32.33;100676.41;12252684;19;20350;-88
2022/08/05 02:43:46;;;;;;;;;;;28.00;33.00;;;26.38;32.72;100677.53;12255359;19;19918;-88
2022/08/05 02:47:48;;;;;;;;;;;27.90;32.90;;;26.22;32.71;100665.19;12254222;19;19929;-88
2022/08/05 02:51:51;;;;;;;;;;;27.90;33.00;;;26.25;32.67;100686.25;12255018;19;20357;-88
2022/08/05 02:55:53;;;;;;;;;;;27.80;33.00;;;26.18;32.63;100677.31;12254725;19;19970;-89
2022/08/05 02:59:56;;;;;;;;;;;27.80;33.00;;;26.02;33.04;100668.47;12249330;19;20274;-89
2022/08/05 03:04:00;;;;;;;;;;;27.70;32.90;;;25.99;32.65;100705.50;12253853;19;20380;-89
2022/08/05 03:08:02;;;;;;;;;;;27.60;33.00;;;25.83;33.15;100701.13;12252548;19;19933;-89
2022/08/05 03:12:04;;;;;;;;;;;27.50;33.10;;;25.87;32.76;100702.47;12252434;19;19911;-89
2022/08/05 03:16:06;;;;;;;;;;;27.40;33.50;;;25.53;33.12;100658.34;12252494;19;19925;-90
2022/08/05 03:20:08;;;;;;;;;;;27.40;33.10;;;25.55;33.29;100666.19;12251020;19;19906;-88
2022/08/05 03:24:10;;;;;;;;;;;27.30;33.20;;;25.51;33.36;100673.72;12256639;19;19911;-89
2022/08/05 03:28:12;;;;;;;;;;;27.30;33.10;;;25.43;33.03;100665.81;12253159;19;20326;-89
2022/08/05 03:32:14;;;;;;;;;;;27.30;33.30;;;25.39;33.00;100677.88;12254321;19;19922;-89
2022/08/05 03:36:16;;;;;;;;;;;27.10;33.20;;;25.32;33.29;100674.28;12253063;19;19915;-90
2022/08/05 03:40:17;;;;;;;;;;;27.00;33.30;;;25.29;33.32;100663.94;12251231;19;20135;-90
2022/08/05 03:44:19;;;;;;;;;;;27.00;33.40;;;25.20;33.41;100646.34;12254239;19;19922;-90
2022/08/05 03:48:21;;;;;;;;;;;26.90;33.40;;;25.31;33.65;100664.59;12251910;19;20303;-90
2022/08/05 03:52:26;;;;;;;;;;;26.90;33.50;;;25.33;33.52;100674.09;12253843;19;19931;-88
2022/08/05 03:56:40;;;;;;;;;;;26.90;33.60;;;25.30;33.81;100678.97;12252734;19;20371;-88
2022/08/05 04:00:43;;;;;;;;;;;26.90;33.70;;;25.12;34.02;100661.41;12249731;19;19911;-88
2022/08/05 04:04:44;;;;;;;;;;;26.80;33.40;;;24.67;33.75;100603.53;12250990;19;19922;-89
2022/08/05 04:08:46;;;;;;;;;;;26.80;33.70;;;24.84;33.88;100625.59;12247879;19;19914;-89
2022/08/05 04:12:48;;;;;;;;;;;26.70;33.60;;;25.06;33.50;100672.81;12250564;19;20022;-89
2022/08/05 04:16:50;;;;;;;;;;;26.70;33.60;;;25.02;33.94;100670.69;12250228;19;20277;-88
2022/08/05 04:20:56;;;;;;;;;;;26.70;33.80;;;24.82;33.57;100649.81;12246091;19;19915;-89
2022/08/05 04:24:57;;;;;;;;;;;26.60;33.80;;;24.51;34.14;100599.16;12248733;19;19938;-89
2022/08/05 04:28:59;;;;;;;;;;;26.80;34.10;;;25.01;33.83;100683.22;12248187;19;19922;-88
2022/08/05 04:33:01;;;;;;;;;;;26.60;34.00;;;25.05;34.01;100668.47;12234722;19;19989;-90
2022/08/05 04:37:03;;;;;;;;;;;26.60;34.10;;;24.93;33.83;100662.75;12246070;19;19922;-89
2022/08/05 04:41:04;;;;;;;;;;;26.30;33.90;;;25.15;34.47;100681.63;12245285;19;20290;-89
2022/08/05 04:45:06;;;;;;;;;;;26.70;34.60;;;24.94;34.16;100651.03;12246333;19;19927;-87
2022/08/05 04:49:08;;;;;;;;;;;26.70;34.30;;;25.05;33.99;100660.47;12243446;19;20294;-89
2022/08/05 04:53:10;;;;;;;;;;;26.70;34.30;;;25.16;34.35;100678.75;12239482;19;19926;-90
2022/08/05 04:57:11;;;;;;;;;;;26.70;34.50;;;25.10;34.60;100676.78;12233805;19;20406;-89
2022/08/05 05:01:13;;;;;;;;;;;27.00;34.40;;;25.04;34.41;100674.03;12234655;19;19918;-89
2022/08/05 05:05:14;;;;;;;;;;;26.70;34.30;;;25.11;34.57;100694.50;12239617;19;19915;-89
2022/08/05 05:09:16;;;;;;;;;;;26.70;34.50;;;25.14;34.86;100704.81;12235157;19;19982;-89
2022/08/05 05:13:18;;;;;;;;;;;26.70;34.70;;;25.08;34.38;100686.00;12231787;19;19942;-89
2022/08/05 05:17:19;;;;;;;;;;;26.80;34.80;;;25.03;34.60;100673.16;12238201;19;19919;-88
2022/08/05 05:21:21;;;;;;;;;;;26.80;35.20;;;25.43;34.32;100721.13;12241562;19;19915;-89
2022/08/05 05:25:22;;;;;;;;;;;27.10;35.00;;;25.03;34.84;100635.75;12232899;19;20380;-89
2022/08/05 05:29:24;;;;;;;;;;;27.00;34.90;;;25.54;34.78;100700.09;12236249;19;19929;-90
2022/08/05 05:33:25;;;;;;;;;;;27.10;35.30;;;25.73;34.66;100719.31;12229963;19;19922;-87
2022/08/05 05:37:27;;;;;;;;;;;27.20;35.40;;;25.81;35.00;100708.50;12245509;19;20237;-87
2022/08/05 05:41:29;;;;;;;;;;;27.30;35.00;;;25.98;34.59;100715.38;12250259;19;19934;-86
2022/08/05 05:45:30;;;;;;;;;;;27.60;35.20;;;26.02;35.06;100711.28;12251412;19;19919;-88
2022/08/05 05:49:32;;;;;;;;;;;27.50;35.10;;;26.24;34.90;100714.03;12248739;19;19955;-88
2022/08/05 05:53:33;;;;;;;;;;;27.60;35.10;;;26.21;34.93;100693.00;12251330;19;19919;-87
2022/08/05 05:57:36;;;;;;;;;;;27.80;35.20;;;26.52;34.96;100738.31;12248366;19;19943;-89
2022/08/05 06:01:40;;;;;;;;;;;27.90;35.30;;;26.65;34.91;100769.75;12251219;19;19932;-89
2022/08/05 06:05:42;;;;;;;;;;;28.20;35.30;;;26.69;35.01;100776.41;12251864;19;19914;-88
2022/08/05 06:09:43;;;;;;;;;;;28.10;35.10;;;26.32;35.14;100705.06;12239366;19;20314;-88
2022/08/05 06:13:45;;;;;;;;;;;28.20;35.20;;;26.87;34.99;100762.59;12245556;19;20004;-88
2022/08/05 06:17:46;;;;;;;;;;;28.30;35.10;;;26.93;35.20;100772.53;12249033;19;20266;-85
2022/08/05 06:21:48;;;;;;;;;;;28.40;35.20;;;26.84;35.21;100763.78;12244821;19;19943;-88
2022/08/05 06:25:50;;;;;;;;;;;28.50;35.20;;;27.23;35.48;100828.75;12253204;19;19930;-88
2022/08/05 06:29:51;;;;;;;;;;;28.60;35.50;;;27.16;35.19;100804.50;12250005;19;19930;-86
2022/08/05 06:33:53;;;;;;;;;;;28.80;35.60;;;27.24;35.50;100839.25;12254813;19;19918;-86
2022/08/05 06:37:54;;;;;;;;;;;28.80;35.50;;;27.22;35.33;100844.00;12252849;19;19925;-87
2022/08/05 06:41:57;;;;;;;;;;;28.80;35.50;;;27.35;35.44;100854.88;12252761;19;20388;-87
2022/08/05 06:45:59;;;;;;;;;;;28.80;35.70;;;27.35;35.40;100846.81;12250899;19;19929;-88
2022/08/05 06:50:00;;;;;;;;;;;28.90;35.60;;;27.43;35.60;100832.41;12250757;19;19918;-87
2022/08/05 06:54:03;;;;;;;;;;;28.90;36.20;;;27.55;35.49;100838.94;12255022;19;19907;-86
2022/08/05 06:58:04;;;;;;;;;;;29.00;35.60;;;27.76;35.59;100854.19;12250121;19;19926;-89
2022/08/05 07:02:06;;;;;;;;;;;29.10;35.80;;;27.56;35.93;100794.16;12255135;19;19914;-89
2022/08/05 07:06:08;;;;;;;;;;;29.20;35.80;;;27.51;35.93;100762.53;12252246;19;19922;-88
2022/08/05 07:10:10;;;;;;;;;;;29.30;35.60;;;27.99;36.06;100831.66;12251804;19;19915;-87
2022/08/05 07:18:31;;;;;;;;;;;29.50;35.80;;;28.29;36.09;100837.63;12251204;19;19921;-89
2022/08/05 07:22:33;;;;;;;;;;;29.60;35.70;;;28.00;36.04;100775.09;12248924;19;19911;-86
2022/08/05 07:26:34;;;;;;;;;;;29.80;35.90;;;28.50;35.64;100828.66;12248762;19;19911;-88
2022/08/05 07:30:37;;;;;;;;;;;29.90;36.10;;;28.73;35.90;100838.25;12244762;19;19947;-87
2022/08/05 07:34:39;;;;;;;;;;;30.00;36.20;;;28.70;35.78;100819.84;12247342;19;19922;-88
2022/08/05 07:38:41;;;;;;;;;;;30.20;35.90;;;28.80;35.92;100839.94;12242687;19;19914;-88
2022/08/05 07:42:42;;;;;;;;;;;30.30;35.90;;;28.67;35.95;100805.75;12246025;19;19914;-88
2022/08/05 07:46:44;;;;;;;;;;;30.50;36.00;;;28.80;35.78;100812.22;12247401;19;20358;-87
2022/08/05 07:50:45;;;;;;;;;;;30.60;36.00;;;28.94;35.94;100807.72;12242622;19;19915;-88
2022/08/05 07:54:47;;;;;;;;;;;30.60;35.90;;;29.16;35.65;100794.94;12245747;19;19915;-86
2022/08/05 07:58:48;;;;;;;;;;;30.80;35.90;;;29.71;35.90;100847.59;12240801;19;19930;-88
2022/08/05 08:02:50;;;;;;;;;;;31.00;35.90;;;29.58;35.95;100796.41;12247129;19;19970;-87
2022/08/05 08:06:52;;;;;;;;;;;31.20;36.20;;;29.75;35.84;100794.13;12247916;19;19910;-89
2022/08/05 08:10:55;;;;;;;;;;;31.30;36.20;;;30.07;35.88;100813.97;12250772;19;19911;-87
2022/08/05 08:14:57;;;;;;;;;;;31.50;36.00;;;30.39;35.55;100862.63;12250658;19;19928;-87
2022/08/05 08:18:58;;;;;;;;;;;31.70;35.90;;;30.39;35.61;100865.31;12241640;19;19918;-89
2022/08/05 08:23:01;;;;;;;;;;;31.80;35.90;;;30.21;35.81;100853.28;12245377;19;19918;-86
2022/08/05 08:27:03;;;;;;;;;;;31.80;35.60;;;30.09;35.80;100822.66;12243243;19;19931;-88
2022/08/05 08:31:05;;;;;;;;;;;31.80;35.40;;;30.04;35.71;100809.00;12236748;19;19929;-89
2022/08/05 08:35:07;;;;;;;;;;;31.80;35.50;;;29.87;35.81;100791.66;12234341;19;19961;-87
2022/08/05 08:39:09;;;;;;;;;;;31.80;35.40;;;30.05;35.68;100820.59;12243458;19;19946;-87
2022/08/05 08:43:11;;;;;;;;;;;31.80;35.30;;;30.36;35.91;100866.56;12245505;19;19915;-88
2022/08/05 08:47:13;;;;;;;;;;;31.80;35.30;;;30.33;35.30;100872.38;12245151;19;19919;-88
2022/08/05 08:51:17;;;;;;;;;;;31.80;35.30;;;30.38;35.66;100874.41;12243579;19;20261;-87
2022/08/05 08:55:19;;;;;;;;;;;31.80;35.20;;;30.39;35.39;100885.00;12242665;19;20248;-87
2022/08/05 08:59:21;;;;;;;;;;;31.90;35.10;;;30.26;35.68;100876.13;12238690;19;20333;-89
2022/08/05 09:03:23;;;;;;;;;;;31.90;35.10;;;30.18;35.29;100877.13;12243981;19;19915;-86
2022/08/05 09:07:25;;;;;;;;;;;31.80;35.00;;;30.16;35.57;100893.53;12244135;19;20345;-88
2022/08/05 09:11:26;;;;;;;;;;;31.80;35.00;;;30.06;35.42;100881.53;12257129;19;20376;-88
2022/08/05 09:15:28;;;;;;;;;;;31.70;35.00;;;29.94;35.80;100865.97;12257257;19;19918;-88
2022/08/05 09:19:29;;;;;;;;;;;31.60;35.10;;;30.03;35.72;100904.31;12253797;19;19986;-86
2022/08/05 09:23:31;;;;;;;;;;;31.60;35.10;;;29.87;35.50;100881.34;12256860;19;19925;-86
2022/08/05 09:27:36;;;;;;;;;;;31.50;35.40;;;29.90;35.60;100896.25;12253246;19;20296;-90
2022/08/05 09:31:37;;;;;;;;;;;31.50;35.30;;;29.85;35.98;100887.97;12249787;19;20314;-88
2022/08/05 09:35:51;;;;;;;;;;;31.40;35.40;;;29.42;35.55;100877.56;12252060;19;19922;-87
2022/08/05 09:39:53;;;;;;;;;;;31.30;35.40;;;29.58;35.68;100922.09;12250579;19;19947;-88
2022/08/05 09:43:54;;;;;;;;;;;31.30;35.30;;;29.53;36.10;100925.38;12253375;19;19921;-89
2022/08/05 09:47:55;;;;;;;;;;;31.20;35.50;;;29.62;36.15;100961.00;12251613;19;20345;-89
2022/08/05 09:51:57;;;;;;;;;;;31.20;35.70;;;29.64;35.81;100965.19;12256542;19;19911;-91
2022/08/05 09:56:00;;;;;;;;;;;31.20;35.90;;;29.46;35.83;100938.00;12254635;19;19910;-90
2022/08/05 10:00:12;;;;;;;;;;;31.20;35.90;;;29.74;35.66;100973.69;12251664;19;19921;-90
2022/08/05 10:04:14;;;;;;;;;;;31.20;35.90;;;29.44;35.85;100915.88;12255637;19;19930;-90
2022/08/05 10:08:23;;;;;;;;;;;31.20;35.80;;;29.79;35.90;100956.94;12253043;19;19915;-89
2022/08/05 10:12:24;;;;;;;;;;;31.20;35.70;;;29.60;35.73;100936.16;12257121;19;20321;-89
2022/08/05 10:16:32;;;;;;;;;;;31.20;35.70;;;29.48;35.68;100901.78;12253740;19;19911;-88
2022/08/05 10:20:45;;;;;;;;;;;31.20;35.50;;;29.46;35.94;100873.41;12250923;19;19919;-88
2022/08/05 10:24:47;;;;;;;;;;;31.20;35.80;;;29.21;35.88;100889.31;12256033;19;19931;-88
2022/08/05 10:28:49;;;;;;;;;;;31.00;36.30;;;29.01;36.59;100933.09;12254138;19;19922;-90
2022/08/05 10:32:51;;;;;;;;;;;30.80;36.40;;;28.85;36.79;100926.19;12255460;19;19925;-88
2022/08/05 10:36:53;;;;;;;;;;;30.80;36.60;;;28.63;36.58;100909.34;12251287;19;20357;-87
2022/08/05 10:41:06;;;;;;;;;;;30.40;36.70;;;28.53;36.67;100946.50;12254111;19;19911;-88
2022/08/05 10:45:08;;;;;;;;;;;30.30;36.70;;;28.09;36.67;100891.22;12243271;19;19922;-89
2022/08/05 10:49:10;;;;;;;;;;;30.20;36.90;;;28.18;37.15;100906.13;12246073;19;19919;-89
2022/08/05 10:53:35;;;;;;;;;;;30.00;37.00;;;28.20;37.07;100936.31;12253371;19;19949;-86
2022/08/05 10:57:40;;;;;;;;;;;30.00;37.50;;;28.13;37.47;100924.69;12248145;19;19961;-88
2022/08/05 11:01:43;;;;;;;;;;;29.70;37.70;;;27.65;37.24;100857.38;12251732;19;20610;-88
2022/08/05 11:06:05;;;;;;;;;;;29.70;37.70;;;28.13;37.54;100967.66;12250881;19;20515;-89
2022/08/05 11:10:20;;;;;;;;;;;29.60;37.80;;;28.02;37.46;100923.38;12247127;19;19922;-88
2022/08/05 11:14:24;;;;;;;;;;;29.60;37.60;;;28.02;37.50;100888.47;12254290;19;19915;-88
2022/08/05 11:18:28;;;;;;;;;;;29.60;37.90;;;28.06;37.56;100888.94;12249408;19;19935;-89
2022/08/05 11:22:50;;;;;;;;;;;29.60;38.20;;;28.00;37.87;100889.69;12250812;19;19914;-87
2022/08/05 11:27:30;;;;;;;;;;;29.50;38.10;;;27.90;38.08;100940.22;12253912;19;19932;-88
2022/08/05 11:31:32;;;;;;;;;;;29.40;38.30;;;27.74;38.00;100939.44;12251207;19;19930;-89
2022/08/05 11:35:51;;;;;;;;;;;29.30;38.20;;;27.80;38.11;100941.38;12249091;19;19927;-88
2022/08/05 11:39:52;;;;;;;;;;;29.30;38.50;;;27.74;38.10;100949.34;12247573;19;19982;-87
2022/08/05 11:43:59;;;;;;;;;;;29.30;38.60;;;27.79;38.07;100963.84;12250533;19;19915;-87
2022/08/05 11:48:06;;;;;;;;;;;29.30;38.60;;;27.86;38.09;100968.47;12251494;19;19925;-88
2022/08/05 11:52:07;;;;;;;;;;;29.30;38.90;;;27.69;38.32;100932.97;12249941;19;19915;-88
2022/08/05 11:56:09;;;;;;;;;;;29.40;38.80;;;27.98;38.44;100964.25;12253888;19;19915;-87
2022/08/05 12:00:30;;;;;;;;;;;29.40;38.80;;;28.12;38.48;100971.38;12258536;19;19911;-88
2022/08/05 12:04:39;;;;;;;;;;;29.40;38.50;;;28.15;38.63;100960.25;12258063;19;19915;-86
2022/08/05 12:08:44;;;;;;;;;;;29.50;38.50;;;28.07;38.32;100967.63;12252581;19;20269;-88
2022/08/05 12:12:46;;;;;;;;;;;29.50;38.30;;;28.11;38.67;100971.56;12249387;19;20260;-88
2022/08/05 12:16:48;;;;;;;;;;;29.60;38.00;;;28.14;38.25;100979.22;12249365;19;19922;-86
2022/08/05 12:20:49;;;;;;;;;;;29.60;38.10;;;27.78;38.69;100905.78;12247271;19;19928;-85
2022/08/05 12:24:51;;;;;;;;;;;29.60;38.10;;;28.19;38.61;100966.06;12252032;19;19915;-87
2022/08/05 12:28:52;;;;;;;;;;;29.70;38.30;;;27.97;38.44;100923.13;12249760;19;19924;-87
2022/08/05 12:32:55;;;;;;;;;;;29.80;38.20;;;28.50;38.19;100970.25;12253852;19;19915;-87
2022/08/05 12:37:09;;;;;;;;;;;29.90;38.30;;;28.74;38.53;100968.94;12252596;19;19925;-86
2022/08/05 12:41:12;;;;;;;;;;;30.00;38.50;;;28.95;38.54;100968.00;12250575;19;19915;-88
2022/08/05 12:45:13;;;;;;;;;;;30.20;38.70;;;29.11;38.34;100965.00;12249981;19;19915;-87
2022/08/05 12:49:14;;;;;;;;;;;30.30;38.20;;;29.16;38.33;100949.09;12246605;19;19919;-89
2022/08/05 12:53:16;;;;;;;;;;;30.50;38.20;;;29.43;38.28;100962.63;12249109;19;19915;-89
2022/08/05 12:57:18;;;;;;;;;;;30.60;38.10;;;29.60;38.32;100969.31;12239304;19;20022;-87
2022/08/05 13:01:22;;;;;;;;;;;30.80;38.10;;;29.69;38.50;100953.81;12251347;19;19935;-87
2022/08/05 13:05:24;;;;;;;;;;;30.90;38.00;;;29.87;38.03;100954.03;12249040;19;19946;-88
2022/08/05 13:09:27;;;;;;;;;;;31.10;38.20;;;30.03;38.36;100963.59;12239225;19;19915;-89
2022/08/05 13:13:29;;;;;;;;;;;31.30;38.10;;;30.25;38.44;100972.31;12247367;19;19938;-88
2022/08/05 13:17:32;;;;;;;;;;;31.50;37.90;;;30.29;38.12;100954.66;12238087;19;19982;-89
2022/08/05 13:21:33;;;;;;;;;;;31.60;37.70;;;30.39;37.84;100940.78;12245129;19;19915;-87
2022/08/05 13:25:35;;;;;;;;;;;31.70;37.60;;;30.29;37.95;100906.16;12246084;19;20302;-89
2022/08/05 13:29:36;;;;;;;;;;;31.90;37.50;;;30.74;37.77;100959.34;12246874;19;19919;-87
2022/08/05 13:33:41;;;;;;;;;;;32.00;37.50;;;30.72;37.92;100937.16;12249339;19;19914;-88
2022/08/05 13:37:42;;;;;;;;;;;32.10;37.30;;;30.62;38.03;100914.19;12246544;19;19926;-88
2022/08/05 13:41:44;;;;;;;;;;;32.30;37.30;;;30.92;37.51;100937.97;12248519;19;19975;-89
2022/08/05 13:45:45;;;;;;;;;;;32.30;37.20;;;30.99;37.89;100933.34;12247017;19;19910;-88
2022/08/05 13:49:47;;;;;;;;;;;32.40;37.30;;;30.97;37.63;100913.00;12243427;19;20265;-88
2022/08/05 13:53:48;;;;;;;;;;;32.40;37.10;;;30.84;37.92;100884.25;12248820;19;19926;-88
2022/08/05 13:57:50;;;;;;;;;;;32.60;37.10;;;31.23;37.55;100934.47;12255722;19;19939;-88
2022/08/05 14:01:56;;;;;;;;;;;32.60;37.00;;;31.39;37.48;100945.84;12262079;19;19919;-88
2022/08/05 14:05:57;;;;;;;;;;;32.90;37.10;;;31.19;37.76;100903.56;12261708;19;19948;-88
2022/08/05 14:10:00;;;;;;;;;;;32.80;36.90;;;31.49;37.43;100954.28;12256876;19;19943;-88
2022/08/05 14:14:01;;;;;;;;;;;32.90;36.80;;;31.37;37.20;100934.44;12261241;19;19919;-87
2022/08/05 14:18:04;;;;;;;;;;;32.90;36.80;;;31.47;37.56;100956.38;12255774;19;19903;-88
2022/08/05 14:22:06;;;;;;;;;;;32.90;36.80;;;31.23;37.71;100929.06;12259400;19;20412;-88
2022/08/05 14:26:07;;;;;;;;;;;32.90;36.80;;;31.07;37.82;100902.59;12257613;19;19929;-88
2022/08/05 14:30:09;;;;;;;;;;;32.90;36.80;;;31.03;37.62;100894.13;12244651;19;19922;-88
2022/08/05 14:34:11;;;;;;;;;;;32.90;36.70;;;31.45;37.25;100963.84;12255133;19;19922;-90
2022/08/05 14:38:12;;;;;;;;;;;32.90;36.80;;;31.47;37.36;100967.19;12250954;19;19947;-90
2022/08/05 14:42:14;;;;;;;;;;;32.90;36.80;;;31.21;37.40;100928.44;12251308;19;20336;-87
2022/08/05 14:46:16;;;;;;;;;;;32.90;36.70;;;30.91;37.50;100895.00;12253460;19;19939;-88
2022/08/05 14:50:18;;;;;;;;;;;32.90;36.60;;;30.78;37.56;100891.28;12248673;19;19914;-88
2022/08/05 14:54:19;;;;;;;;;;;32.90;36.60;;;31.02;37.36;100934.78;12252996;19;19919;-88
2022/08/05 14:58:21;;;;;;;;;;;32.80;36.60;;;31.08;37.16;100950.09;12249812;19;19986;-89
2022/08/05 15:02:22;;;;;;;;;;;32.80;36.60;;;31.06;37.14;100957.59;12247628;19;19930;-89
2022/08/05 15:06:23;;;;;;;;;;;32.70;36.60;;;30.78;37.57;100942.50;12244054;19;19923;-89
2022/08/05 15:10:25;;;;;;;;;;;32.60;36.60;;;30.94;37.59;100987.09;12241979;19;19947;-89
2022/08/05 15:14:27;;;;;;;;;;;32.50;36.50;;;30.73;37.47;100963.06;12247294;19;19934;-88
2022/08/05 15:18:28;;;;;;;;;;;32.50;36.60;;;30.60;37.36;100937.00;12244595;19;20337;-89
2022/08/05 15:22:30;;;;;;;;;;;32.40;36.70;;;30.55;37.25;100945.72;12249236;19;19915;-88
2022/08/05 15:26:31;;;;;;;;;;;32.40;36.60;;;30.37;37.48;100932.88;12237676;19;20329;-88
2022/08/05 15:30:35;;;;;;;;;;;32.30;36.60;;;30.57;37.48;100972.44;12234888;19;19978;-89
2022/08/05 15:34:36;;;;;;;;;;;32.30;36.60;;;30.62;37.44;100973.50;12245731;19;19922;-88
2022/08/05 15:38:38;;;;;;;;;;;32.10;36.60;;;30.57;37.21;100975.13;12242637;19;19919;-90
2022/08/05 15:42:39;;;;;;;;;;;32.10;36.70;;;30.18;37.62;100921.06;12246154;19;19915;-88
2022/08/05 15:46:41;;;;;;;;;;;32.00;36.60;;;30.42;37.46;100978.09;12243003;19;19919;-88
2022/08/05 15:50:44;;;;;;;;;;;32.00;36.70;;;30.24;37.60;100954.47;12239754;19;20329;-87
2022/08/05 15:54:46;;;;;;;;;;;32.00;36.70;;;30.37;37.42;100992.16;12238870;19;19939;-89
2022/08/05 15:58:48;;;;;;;;;;;31.90;36.80;;;30.26;37.45;100979.34;12234292;19;19945;-88
2022/08/05 16:02:50;;;;;;;;;;;31.90;36.90;;;30.24;37.65;101002.13;12242358;19;20323;-89
2022/08/05 16:06:54;;;;;;;;;;;31.90;37.00;;;29.97;37.85;100973.31;12251421;19;19947;-89
2022/08/05 16:10:57;;;;;;;;;;;31.80;37.00;;;30.08;37.74;101003.34;12249843;19;19925;-89
2022/08/05 16:15:00;;;;;;;;;;;31.70;36.90;;;30.11;37.91;101022.63;12249063;19;19971;-89
2022/08/05 16:19:02;;;;;;;;;;;31.60;37.00;;;29.86;37.77;100995.44;12246739;19;20333;-89
2022/08/05 16:23:04;;;;;;;;;;;31.60;37.20;;;29.36;38.06;100951.84;12250134;19;20316;-89
2022/08/05 16:27:05;;;;;;;;;;;31.50;37.10;;;29.30;38.05;100948.13;12250498;19;19923;-88
2022/08/05 16:31:07;;;;;;;;;;;31.40;37.20;;;29.27;37.93;100970.06;12248488;19;19952;-89
2022/08/05 16:35:08;;;;;;;;;;;31.30;37.20;;;29.48;38.29;101030.94;12248933;19;19923;-89
2022/08/05 16:39:10;;;;;;;;;;;31.20;37.30;;;29.42;38.00;101068.63;12247002;19;19914;-88
2022/08/05 16:43:15;;;;;;;;;;;31.10;37.30;;;29.16;38.41;101074.69;12245941;19;20157;-89
2022/08/05 16:47:16;;;;;;;;;;;31.00;37.30;;;28.76;38.68;101044.81;12249756;19;20313;-88
2022/08/05 16:51:18;;;;;;;;;;;31.00;37.20;;;28.94;38.40;101098.94;12249203;19;19915;-90
2022/08/05 16:55:19;;;;;;;;;;;30.70;37.50;;;28.67;38.88;101069.16;12249798;19;19915;-89
2022/08/05 16:59:20;;;;;;;;;;;30.60;37.40;;;28.62;38.40;101047.41;12246170;19;19923;-89
2022/08/05 17:03:22;;;;;;;;;;;30.50;37.60;;;28.29;38.82;101031.00;12247154;19;19936;-89
2022/08/05 17:07:23;;;;;;;;;;;30.60;38.30;;;28.40;38.94;101099.50;12247584;19;19918;-89
2022/08/05 17:11:25;;;;;;;;;;;30.20;38.10;;;27.73;39.20;101009.38;12248053;19;19982;-89
2022/08/05 17:15:27;;;;;;;;;;;30.10;38.20;;;28.11;38.76;101087.91;12246086;19;19951;-90
2022/08/05 17:19:28;;;;;;;;;;;29.90;38.00;;;28.01;39.16;101100.78;12245959;19;19926;-89
2022/08/05 17:23:30;;;;;;;;;;;29.80;38.30;;;28.01;39.10;101098.09;12248426;19;19911;-88
2022/08/05 17:27:31;;;;;;;;;;;29.90;38.60;;;28.00;39.61;101123.28;12247186;19;19919;-89
2022/08/05 17:31:33;;;;;;;;;;;29.60;38.50;;;27.84;39.28;101123.50;12256075;19;19947;-88
2022/08/05 17:35:34;;;;;;;;;;;29.70;38.50;;;27.31;39.47;101070.81;12255620;19;20574;-89
2022/08/05 17:39:36;;;;;;;;;;;29.40;38.20;;;27.61;39.57;101155.81;12246761;19;19911;-89
2022/08/05 17:43:37;;;;;;;;;;;29.40;38.20;;;27.53;39.36;101162.94;12252522;19;19921;-90
2022/08/05 17:47:39;;;;;;;;;;;29.20;38.20;;;27.35;39.88;101168.69;12257477;19;19986;-88
2022/08/05 17:51:41;;;;;;;;;;;29.10;38.40;;;26.80;39.74;101132.31;12256050;19;19942;-88
2022/08/05 17:55:42;;;;;;;;;;;29.00;38.10;;;26.92;40.10;101184.50;12258374;19;19928;-90
2022/08/05 17:59:43;;;;;;;;;;;28.80;37.70;;;26.77;40.24;101202.38;12256098;19;19933;-88
2022/08/05 18:03:45;;;;;;;;;;;28.70;38.00;;;26.25;40.05;101152.16;12260599;19;19911;-87
2022/08/05 18:07:46;;;;;;;;;;;28.50;38.20;;;26.09;40.23;101182.53;12257803;19;19921;-88
2022/08/05 18:11:48;;;;;;;;;;;28.40;38.30;;;26.36;40.16;101253.50;12261238;19;20439;-90
2022/08/05 18:15:51;;;;;;;;;;;28.20;38.30;;;26.05;40.30;101256.97;12263291;19;19915;-88